sensor_id;sensor_type;location;lat;lon;timestamp;temperature;humidity
15906;DHT22;8051;50.820;4.884;2022-08-03T00:00:59;21.30;99.90
15906;DHT22;8051;50.820;4.884;2022-08-03T00:03:29;21.20;99.90
15906;DHT22;8051;50.820;4.884;2022-08-03T00:05:59;21.20;99.90
15906;DHT22;8051;50.820;4.884;2022-08-03T00:08:26;21.20;99.90
15906;DHT22;8051;50.820;4.884;2022-08-03T00:10:53;21.10;99.90
15906;DHT22;8051;50.820;4.884;2022-08-03T00:13:20;21.10;99.90
15906;DHT22;8051;50.820;4.884;2022-08-03T00:15:47;21.00;99.90
15906;DHT22;8051;50.820;4.884;2022-08-03T00:18:15;21.00;99.90
15906;DHT22;8051;50.820;4.884;2022-08-03T00:20:42;21.00;99.90
15906;DHT22;8051;50.820;4.884;2022-08-03T00:23:09;20.90;99.90
15906;DHT22;8051;50.820;4.884;2022-08-03T00:25:36;20.90;99.90
15906;DHT22;8051;50.820;4.884;2022-08-03T00:28:04;20.90;99.90
15906;DHT22;8051;50.820;4.884;2022-08-03T00:30:32;20.90;99.90
15906;DHT22;8051;50.820;4.884;2022-08-03T00:32:59;21.00;99.90
15906;DHT22;8051;50.820;4.884;2022-08-03T00:35:27;21.00;99.90
15906;DHT22;8051;50.820;4.884;2022-08-03T00:37:54;21.00;99.90
15906;DHT22;8051;50.820;4.884;2022-08-03T00:40:21;20.90;99.90
15906;DHT22;8051;50.820;4.884;2022-08-03T00:42:50;21.00;99.90
15906;DHT22;8051;50.820;4.884;2022-08-03T00:45:18;21.00;99.90
15906;DHT22;8051;50.820;4.884;2022-08-03T00:47:46;21.00;99.90
15906;DHT22;8051;50.820;4.884;2022-08-03T00:50:13;20.90;99.90
15906;DHT22;8051;50.820;4.884;2022-08-03T00:52:42;20.90;99.90
15906;DHT22;8051;50.820;4.884;2022-08-03T00:55:09;20.80;99.90
15906;DHT22;8051;50.820;4.884;2022-08-03T00:57:36;20.80;99.90
15906;DHT22;8051;50.820;4.884;2022-08-03T01:00:05;20.70;99.90
15906;DHT22;8051;50.820;4.884;2022-08-03T01:02:32;20.60;99.90
15906;DHT22;8051;50.820;4.884;2022-08-03T01:04:59;20.60;99.90
15906;DHT22;8051;50.820;4.884;2022-08-03T01:07:37;20.50;99.90
15906;DHT22;8051;50.820;4.884;2022-08-03T01:10:14;20.40;99.90
15906;DHT22;8051;50.820;4.884;2022-08-03T01:12:49;20.50;99.90
15906;DHT22;8051;50.820;4.884;2022-08-03T01:15:21;20.40;99.90
15906;DHT22;8051;50.820;4.884;2022-08-03T01:17:56;20.40;99.90
15906;DHT22;8051;50.820;4.884;2022-08-03T01:20:26;20.40;99.90
15906;DHT22;8051;50.820;4.884;2022-08-03T01:23:07;20.50;99.90
15906;DHT22;8051;50.820;4.884;2022-08-03T01:25:58;20.40;99.90
15906;DHT22;8051;50.820;4.884;2022-08-03T01:28:50;20.30;99.90
15906;DHT22;8051;50.820;4.884;2022-08-03T01:31:23;20.30;99.90
15906;DHT22;8051;50.820;4.884;2022-08-03T01:33:56;20.30;99.90
15906;DHT22;8051;50.820;4.884;2022-08-03T01:36:29;20.30;99.90
15906;DHT22;8051;50.820;4.884;2022-08-03T01:39:00;20.20;99.90
15906;DHT22;8051;50.820;4.884;2022-08-03T01:41:30;20.20;99.90
15906;DHT22;8051;50.820;4.884;2022-08-03T01:44:00;20.20;99.90
15906;DHT22;8051;50.820;4.884;2022-08-03T01:46:30;20.20;99.90
15906;DHT22;8051;50.820;4.884;2022-08-03T01:48:59;20.10;99.90
15906;DHT22;8051;50.820;4.884;2022-08-03T01:51:30;20.10;99.90
15906;DHT22;8051;50.820;4.884;2022-08-03T01:53:59;20.10;99.90
15906;DHT22;8051;50.820;4.884;2022-08-03T01:56:30;20.10;99.90
15906;DHT22;8051;50.820;4.884;2022-08-03T01:59:00;20.00;99.90
15906;DHT22;8051;50.820;4.884;2022-08-03T02:01:30;19.90;99.90
15906;DHT22;8051;50.820;4.884;2022-08-03T02:03:58;19.90;99.90
15906;DHT22;8051;50.820;4.884;2022-08-03T02:06:26;19.80;99.90
15906;DHT22;8051;50.820;4.884;2022-08-03T02:08:55;19.70;99.90
15906;DHT22;8051;50.820;4.884;2022-08-03T02:11:22;19.70;99.90
15906;DHT22;8051;50.820;4.884;2022-08-03T02:13:50;19.70;99.90
15906;DHT22;8051;50.820;4.884;2022-08-03T02:16:20;19.60;99.90
15906;DHT22;8051;50.820;4.884;2022-08-03T02:18:49;19.60;99.90
15906;DHT22;8051;50.820;4.884;2022-08-03T02:21:17;19.60;99.90
15906;DHT22;8051;50.820;4.884;2022-08-03T02:23:44;19.60;99.90
15906;DHT22;8051;50.820;4.884;2022-08-03T02:26:14;19.50;99.90
15906;DHT22;8051;50.820;4.884;2022-08-03T02:28:46;19.50;99.90
15906;DHT22;8051;50.820;4.884;2022-08-03T02:31:16;19.50;99.90
15906;DHT22;8051;50.820;4.884;2022-08-03T02:33:49;19.50;99.90
15906;DHT22;8051;50.820;4.884;2022-08-03T02:36:19;19.40;99.90
15906;DHT22;8051;50.820;4.884;2022-08-03T02:38:51;19.30;99.90
15906;DHT22;8051;50.820;4.884;2022-08-03T02:41:23;19.30;99.90
15906;DHT22;8051;50.820;4.884;2022-08-03T02:43:53;19.30;99.90
15906;DHT22;8051;50.820;4.884;2022-08-03T02:46:23;19.20;99.90
15906;DHT22;8051;50.820;4.884;2022-08-03T02:48:53;19.20;99.90
15906;DHT22;8051;50.820;4.884;2022-08-03T02:51:21;19.10;99.90
15906;DHT22;8051;50.820;4.884;2022-08-03T02:53:49;19.10;99.90
15906;DHT22;8051;50.820;4.884;2022-08-03T02:56:17;19.00;99.90
15906;DHT22;8051;50.820;4.884;2022-08-03T02:58:46;19.00;99.90
15906;DHT22;8051;50.820;4.884;2022-08-03T03:01:15;19.00;99.90
15906;DHT22;8051;50.820;4.884;2022-08-03T03:03:44;19.00;99.90
15906;DHT22;8051;50.820;4.884;2022-08-03T03:06:14;18.90;99.90
15906;DHT22;8051;50.820;4.884;2022-08-03T03:08:41;18.90;99.90
15906;DHT22;8051;50.820;4.884;2022-08-03T03:11:09;18.80;99.90
15906;DHT22;8051;50.820;4.884;2022-08-03T03:13:37;18.80;99.90
15906;DHT22;8051;50.820;4.884;2022-08-03T03:16:05;18.70;99.90
15906;DHT22;8051;50.820;4.884;2022-08-03T03:18:34;18.70;99.90
15906;DHT22;8051;50.820;4.884;2022-08-03T03:21:03;18.70;99.90
15906;DHT22;8051;50.820;4.884;2022-08-03T03:23:33;18.60;99.90
15906;DHT22;8051;50.820;4.884;2022-08-03T03:26:02;18.60;99.90
15906;DHT22;8051;50.820;4.884;2022-08-03T03:28:30;18.50;99.90
15906;DHT22;8051;50.820;4.884;2022-08-03T03:30:57;18.40;99.90
15906;DHT22;8051;50.820;4.884;2022-08-03T03:33:24;18.50;99.90
15906;DHT22;8051;50.820;4.884;2022-08-03T03:35:52;18.40;99.90
15906;DHT22;8051;50.820;4.884;2022-08-03T03:38:19;18.40;99.90
15906;DHT22;8051;50.820;4.884;2022-08-03T03:40:47;18.40;99.90
15906;DHT22;8051;50.820;4.884;2022-08-03T03:43:14;18.40;99.90
15906;DHT22;8051;50.820;4.884;2022-08-03T03:45:43;18.30;99.90
15906;DHT22;8051;50.820;4.884;2022-08-03T03:48:11;18.30;99.90
15906;DHT22;8051;50.820;4.884;2022-08-03T03:50:38;18.30;99.90
15906;DHT22;8051;50.820;4.884;2022-08-03T03:53:08;18.30;99.90
15906;DHT22;8051;50.820;4.884;2022-08-03T03:55:35;18.20;99.90
15906;DHT22;8051;50.820;4.884;2022-08-03T03:58:04;18.20;99.90
15906;DHT22;8051;50.820;4.884;2022-08-03T04:00:31;18.20;99.90
15906;DHT22;8051;50.820;4.884;2022-08-03T04:02:58;18.10;99.90
15906;DHT22;8051;50.820;4.884;2022-08-03T04:05:25;18.10;99.90
15906;DHT22;8051;50.820;4.884;2022-08-03T04:08:13;18.10;99.90
15906;DHT22;8051;50.820;4.884;2022-08-03T04:11:05;18.10;99.90
15906;DHT22;8051;50.820;4.884;2022-08-03T04:13:36;18.10;99.90
15906;DHT22;8051;50.820;4.884;2022-08-03T04:16:04;18.00;99.90
15906;DHT22;8051;50.820;4.884;2022-08-03T04:18:34;18.00;99.90
15906;DHT22;8051;50.820;4.884;2022-08-03T04:21:06;18.10;99.90
15906;DHT22;8051;50.820;4.884;2022-08-03T04:23:36;18.00;99.90
15906;DHT22;8051;50.820;4.884;2022-08-03T04:26:06;18.00;99.90
15906;DHT22;8051;50.820;4.884;2022-08-03T04:28:36;18.00;99.90
15906;DHT22;8051;50.820;4.884;2022-08-03T04:31:05;17.90;99.90
15906;DHT22;8051;50.820;4.884;2022-08-03T04:33:34;18.00;99.90
15906;DHT22;8051;50.820;4.884;2022-08-03T04:36:05;18.10;99.90
15906;DHT22;8051;50.820;4.884;2022-08-03T04:38:36;18.20;99.90
15906;DHT22;8051;50.820;4.884;2022-08-03T04:41:05;18.30;99.90
15906;DHT22;8051;50.820;4.884;2022-08-03T04:43:33;18.40;99.90
15906;DHT22;8051;50.820;4.884;2022-08-03T04:46:02;18.60;99.90
15906;DHT22;8051;50.820;4.884;2022-08-03T04:48:30;19.00;99.90
15906;DHT22;8051;50.820;4.884;2022-08-03T04:50:57;19.30;99.90
15906;DHT22;8051;50.820;4.884;2022-08-03T04:53:25;19.70;99.90
15906;DHT22;8051;50.820;4.884;2022-08-03T04:55:52;20.00;99.90
15906;DHT22;8051;50.820;4.884;2022-08-03T04:58:19;20.30;99.90
15906;DHT22;8051;50.820;4.884;2022-08-03T05:00:45;20.50;99.90
15906;DHT22;8051;50.820;4.884;2022-08-03T05:03:17;20.70;99.90
15906;DHT22;8051;50.820;4.884;2022-08-03T05:05:44;20.80;99.90
15906;DHT22;8051;50.820;4.884;2022-08-03T05:08:10;20.90;99.90
15906;DHT22;8051;50.820;4.884;2022-08-03T05:10:37;21.10;99.90
15906;DHT22;8051;50.820;4.884;2022-08-03T05:13:05;21.30;99.90
15906;DHT22;8051;50.820;4.884;2022-08-03T05:15:36;21.70;99.90
15906;DHT22;8051;50.820;4.884;2022-08-03T05:18:03;22.00;99.90
15906;DHT22;8051;50.820;4.884;2022-08-03T05:20:31;22.30;99.90
15906;DHT22;8051;50.820;4.884;2022-08-03T05:22:59;22.50;99.90
15906;DHT22;8051;50.820;4.884;2022-08-03T05:25:28;22.70;99.90
15906;DHT22;8051;50.820;4.884;2022-08-03T05:27:55;23.00;99.90
15906;DHT22;8051;50.820;4.884;2022-08-03T05:30:22;23.20;99.90
15906;DHT22;8051;50.820;4.884;2022-08-03T05:32:49;23.30;99.90
15906;DHT22;8051;50.820;4.884;2022-08-03T05:35:16;23.40;99.90
15906;DHT22;8051;50.820;4.884;2022-08-03T05:37:44;23.50;99.90
15906;DHT22;8051;50.820;4.884;2022-08-03T05:40:11;23.70;99.90
15906;DHT22;8051;50.820;4.884;2022-08-03T05:42:39;23.70;99.90
15906;DHT22;8051;50.820;4.884;2022-08-03T05:45:06;23.70;99.90
15906;DHT22;8051;50.820;4.884;2022-08-03T05:47:40;23.90;99.90
15906;DHT22;8051;50.820;4.884;2022-08-03T05:50:09;24.00;99.90
15906;DHT22;8051;50.820;4.884;2022-08-03T05:52:36;24.10;99.90
15906;DHT22;8051;50.820;4.884;2022-08-03T05:55:05;24.30;99.90
15906;DHT22;8051;50.820;4.884;2022-08-03T05:57:33;24.40;99.90
15906;DHT22;8051;50.820;4.884;2022-08-03T06:00:00;24.50;99.90
15906;DHT22;8051;50.820;4.884;2022-08-03T06:02:28;24.60;99.90
15906;DHT22;8051;50.820;4.884;2022-08-03T06:04:55;24.60;99.90
15906;DHT22;8051;50.820;4.884;2022-08-03T06:07:22;24.60;99.90
15906;DHT22;8051;50.820;4.884;2022-08-03T06:09:49;24.60;99.90
15906;DHT22;8051;50.820;4.884;2022-08-03T06:12:18;24.60;99.90
15906;DHT22;8051;50.820;4.884;2022-08-03T06:14:45;24.60;99.90
15906;DHT22;8051;50.820;4.884;2022-08-03T06:17:12;24.50;99.90
15906;DHT22;8051;50.820;4.884;2022-08-03T06:19:38;24.40;99.90
15906;DHT22;8051;50.820;4.884;2022-08-03T06:22:05;24.40;99.90
15906;DHT22;8051;50.820;4.884;2022-08-03T06:24:32;24.10;99.90
15906;DHT22;8051;50.820;4.884;2022-08-03T06:26:59;24.00;99.90
15906;DHT22;8051;50.820;4.884;2022-08-03T06:29:27;23.90;99.90
15906;DHT22;8051;50.820;4.884;2022-08-03T06:31:54;23.80;99.90
15906;DHT22;8051;50.820;4.884;2022-08-03T06:34:21;23.70;99.90
15906;DHT22;8051;50.820;4.884;2022-08-03T06:36:48;23.60;99.90
15906;DHT22;8051;50.820;4.884;2022-08-03T06:39:15;23.50;99.90
15906;DHT22;8051;50.820;4.884;2022-08-03T06:41:43;23.60;99.90
15906;DHT22;8051;50.820;4.884;2022-08-03T06:44:10;23.60;99.90
15906;DHT22;8051;50.820;4.884;2022-08-03T06:46:39;23.70;99.90
15906;DHT22;8051;50.820;4.884;2022-08-03T06:49:06;23.80;99.90
15906;DHT22;8051;50.820;4.884;2022-08-03T06:51:33;24.00;99.90
15906;DHT22;8051;50.820;4.884;2022-08-03T06:54:01;24.10;99.90
15906;DHT22;8051;50.820;4.884;2022-08-03T06:56:28;24.10;99.90
15906;DHT22;8051;50.820;4.884;2022-08-03T06:58:55;24.10;99.90
15906;DHT22;8051;50.820;4.884;2022-08-03T07:01:22;24.00;99.90
15906;DHT22;8051;50.820;4.884;2022-08-03T07:03:50;24.10;99.90
15906;DHT22;8051;50.820;4.884;2022-08-03T07:06:19;24.30;99.90
15906;DHT22;8051;50.820;4.884;2022-08-03T07:08:46;24.40;99.90
15906;DHT22;8051;50.820;4.884;2022-08-03T07:11:12;24.40;99.90
15906;DHT22;8051;50.820;4.884;2022-08-03T07:13:39;24.40;99.90
15906;DHT22;8051;50.820;4.884;2022-08-03T07:16:06;24.50;99.90
15906;DHT22;8051;50.820;4.884;2022-08-03T07:18:37;24.60;99.90
15906;DHT22;8051;50.820;4.884;2022-08-03T07:21:05;24.80;99.90
15906;DHT22;8051;50.820;4.884;2022-08-03T07:23:33;24.80;99.90
15906;DHT22;8051;50.820;4.884;2022-08-03T07:26:00;24.90;99.90
15906;DHT22;8051;50.820;4.884;2022-08-03T07:28:27;24.90;99.90
15906;DHT22;8051;50.820;4.884;2022-08-03T07:30:54;24.90;99.90
15906;DHT22;8051;50.820;4.884;2022-08-03T07:33:21;25.00;99.90
15906;DHT22;8051;50.820;4.884;2022-08-03T07:35:48;25.10;99.90
15906;DHT22;8051;50.820;4.884;2022-08-03T07:38:17;25.20;99.90
15906;DHT22;8051;50.820;4.884;2022-08-03T07:40:44;25.20;99.90
15906;DHT22;8051;50.820;4.884;2022-08-03T07:43:11;25.40;99.90
15906;DHT22;8051;50.820;4.884;2022-08-03T07:45:38;25.40;99.90
15906;DHT22;8051;50.820;4.884;2022-08-03T07:48:05;25.30;99.90
15906;DHT22;8051;50.820;4.884;2022-08-03T07:50:31;25.30;99.90
15906;DHT22;8051;50.820;4.884;2022-08-03T07:52:58;25.40;99.90
15906;DHT22;8051;50.820;4.884;2022-08-03T07:55:26;25.40;99.90
15906;DHT22;8051;50.820;4.884;2022-08-03T07:58:03;25.50;99.90
15906;DHT22;8051;50.820;4.884;2022-08-03T08:00:30;25.50;99.90
15906;DHT22;8051;50.820;4.884;2022-08-03T08:02:57;25.50;99.90
15906;DHT22;8051;50.820;4.884;2022-08-03T08:05:24;25.40;99.90
15906;DHT22;8051;50.820;4.884;2022-08-03T08:07:51;25.50;99.90
15906;DHT22;8051;50.820;4.884;2022-08-03T08:10:18;25.50;99.90
15906;DHT22;8051;50.820;4.884;2022-08-03T08:12:47;25.50;99.90
15906;DHT22;8051;50.820;4.884;2022-08-03T08:15:14;25.60;99.90
15906;DHT22;8051;50.820;4.884;2022-08-03T08:17:42;25.70;99.90
15906;DHT22;8051;50.820;4.884;2022-08-03T08:20:10;25.70;99.90
15906;DHT22;8051;50.820;4.884;2022-08-03T08:22:37;25.80;99.90
15906;DHT22;8051;50.820;4.884;2022-08-03T08:25:05;25.80;99.90
15906;DHT22;8051;50.820;4.884;2022-08-03T08:27:32;25.70;99.90
15906;DHT22;8051;50.820;4.884;2022-08-03T08:30:03;25.60;99.90
15906;DHT22;8051;50.820;4.884;2022-08-03T08:32:30;25.70;99.90
15906;DHT22;8051;50.820;4.884;2022-08-03T08:34:57;25.80;99.90
15906;DHT22;8051;50.820;4.884;2022-08-03T08:37:24;25.90;99.90
15906;DHT22;8051;50.820;4.884;2022-08-03T08:39:51;26.00;99.90
15906;DHT22;8051;50.820;4.884;2022-08-03T08:42:17;26.10;99.90
15906;DHT22;8051;50.820;4.884;2022-08-03T08:44:44;26.20;99.90
15906;DHT22;8051;50.820;4.884;2022-08-03T08:47:13;26.20;99.90
15906;DHT22;8051;50.820;4.884;2022-08-03T08:49:40;26.30;99.90
15906;DHT22;8051;50.820;4.884;2022-08-03T08:52:08;26.40;99.90
15906;DHT22;8051;50.820;4.884;2022-08-03T08:54:38;26.40;99.90
15906;DHT22;8051;50.820;4.884;2022-08-03T08:57:07;26.50;99.90
15906;DHT22;8051;50.820;4.884;2022-08-03T08:59:35;26.70;99.90
15906;DHT22;8051;50.820;4.884;2022-08-03T09:02:02;26.80;99.90
15906;DHT22;8051;50.820;4.884;2022-08-03T09:04:31;26.80;99.90
15906;DHT22;8051;50.820;4.884;2022-08-03T09:06:58;26.90;99.90
15906;DHT22;8051;50.820;4.884;2022-08-03T09:09:27;27.00;99.90
15906;DHT22;8051;50.820;4.884;2022-08-03T09:11:53;27.00;99.90
15906;DHT22;8051;50.820;4.884;2022-08-03T09:14:20;27.00;99.90
15906;DHT22;8051;50.820;4.884;2022-08-03T09:16:58;27.00;99.90
15906;DHT22;8051;50.820;4.884;2022-08-03T09:19:27;27.10;99.90
15906;DHT22;8051;50.820;4.884;2022-08-03T09:22:08;27.10;99.90
15906;DHT22;8051;50.820;4.884;2022-08-03T09:24:36;27.10;99.90
15906;DHT22;8051;50.820;4.884;2022-08-03T09:27:05;27.20;99.90
15906;DHT22;8051;50.820;4.884;2022-08-03T09:29:37;27.30;99.90
15906;DHT22;8051;50.820;4.884;2022-08-03T09:32:04;27.30;99.90
15906;DHT22;8051;50.820;4.884;2022-08-03T09:34:31;27.40;99.90
15906;DHT22;8051;50.820;4.884;2022-08-03T09:36:58;27.50;99.90
15906;DHT22;8051;50.820;4.884;2022-08-03T09:39:27;27.60;99.90
15906;DHT22;8051;50.820;4.884;2022-08-03T09:42:07;27.60;99.90
15906;DHT22;8051;50.820;4.884;2022-08-03T09:44:35;27.70;99.90
15906;DHT22;8051;50.820;4.884;2022-08-03T09:47:03;27.70;99.90
15906;DHT22;8051;50.820;4.884;2022-08-03T09:49:31;27.90;99.90
15906;DHT22;8051;50.820;4.884;2022-08-03T09:52:00;28.10;99.90
15906;DHT22;8051;50.820;4.884;2022-08-03T09:54:31;28.20;99.90
15906;DHT22;8051;50.820;4.884;2022-08-03T09:56:58;28.40;99.90
15906;DHT22;8051;50.820;4.884;2022-08-03T09:59:27;28.50;99.90
15906;DHT22;8051;50.820;4.884;2022-08-03T10:01:55;28.40;99.90
15906;DHT22;8051;50.820;4.884;2022-08-03T10:04:22;28.40;99.90
15906;DHT22;8051;50.820;4.884;2022-08-03T10:07:03;28.30;99.90
15906;DHT22;8051;50.820;4.884;2022-08-03T10:09:32;28.20;99.90
15906;DHT22;8051;50.820;4.884;2022-08-03T10:12:10;28.30;99.90
15906;DHT22;8051;50.820;4.884;2022-08-03T10:14:37;28.30;99.90
15906;DHT22;8051;50.820;4.884;2022-08-03T10:17:04;28.30;99.90
15906;DHT22;8051;50.820;4.884;2022-08-03T10:19:32;28.40;99.90
15906;DHT22;8051;50.820;4.884;2022-08-03T10:22:03;28.50;99.90
15906;DHT22;8051;50.820;4.884;2022-08-03T10:24:34;28.50;99.90
15906;DHT22;8051;50.820;4.884;2022-08-03T10:27:05;28.70;99.90
15906;DHT22;8051;50.820;4.884;2022-08-03T10:29:36;28.80;99.90
15906;DHT22;8051;50.820;4.884;2022-08-03T10:32:09;28.90;99.90
15906;DHT22;8051;50.820;4.884;2022-08-03T10:34:41;29.00;99.90
15906;DHT22;8051;50.820;4.884;2022-08-03T10:37:10;29.00;99.90
15906;DHT22;8051;50.820;4.884;2022-08-03T10:39:43;29.20;99.90
15906;DHT22;8051;50.820;4.884;2022-08-03T10:42:20;29.20;99.90
15906;DHT22;8051;50.820;4.884;2022-08-03T10:44:52;29.10;99.90
15906;DHT22;8051;50.820;4.884;2022-08-03T10:47:21;29.20;99.90
15906;DHT22;8051;50.820;4.884;2022-08-03T10:49:48;29.10;99.90
15906;DHT22;8051;50.820;4.884;2022-08-03T10:52:16;29.20;99.90
15906;DHT22;8051;50.820;4.884;2022-08-03T10:54:44;29.20;99.90
15906;DHT22;8051;50.820;4.884;2022-08-03T10:57:49;29.20;99.90
15906;DHT22;8051;50.820;4.884;2022-08-03T11:00:18;29.40;99.90
15906;DHT22;8051;50.820;4.884;2022-08-03T11:03:05;29.50;99.90
15906;DHT22;8051;50.820;4.884;2022-08-03T11:05:37;29.50;99.90
15906;DHT22;8051;50.820;4.884;2022-08-03T11:08:25;29.60;99.90
15906;DHT22;8051;50.820;4.884;2022-08-03T11:10:55;29.50;99.90
15906;DHT22;8051;50.820;4.884;2022-08-03T11:13:23;29.60;99.90
15906;DHT22;8051;50.820;4.884;2022-08-03T11:15:53;29.70;99.90
15906;DHT22;8051;50.820;4.884;2022-08-03T11:18:20;29.70;99.90
15906;DHT22;8051;50.820;4.884;2022-08-03T11:20:50;29.70;99.90
15906;DHT22;8051;50.820;4.884;2022-08-03T11:23:19;29.70;99.90
15906;DHT22;8051;50.820;4.884;2022-08-03T11:26:18;29.90;99.90
15906;DHT22;8051;50.820;4.884;2022-08-03T11:28:47;29.90;99.90
15906;DHT22;8051;50.820;4.884;2022-08-03T11:34:23;30.20;99.90
15906;DHT22;8051;50.820;4.884;2022-08-03T11:37:22;30.50;99.90
15906;DHT22;8051;50.820;4.884;2022-08-03T11:39:51;30.50;99.90
15906;DHT22;8051;50.820;4.884;2022-08-03T11:42:43;30.60;99.90
15906;DHT22;8051;50.820;4.884;2022-08-03T11:45:12;30.60;99.90
15906;DHT22;8051;50.820;4.884;2022-08-03T11:47:40;30.50;99.90
15906;DHT22;8051;50.820;4.884;2022-08-03T11:50:09;30.60;99.90
15906;DHT22;8051;50.820;4.884;2022-08-03T11:52:39;30.60;99.90
15906;DHT22;8051;50.820;4.884;2022-08-03T11:55:09;30.60;99.90
15906;DHT22;8051;50.820;4.884;2022-08-03T11:57:36;30.90;99.90
15906;DHT22;8051;50.820;4.884;2022-08-03T12:00:21;31.00;99.90
15906;DHT22;8051;50.820;4.884;2022-08-03T12:03:00;31.00;99.90
15906;DHT22;8051;50.820;4.884;2022-08-03T12:05:51;31.20;99.90
15906;DHT22;8051;50.820;4.884;2022-08-03T12:08:29;31.20;99.90
15906;DHT22;8051;50.820;4.884;2022-08-03T12:10:58;31.30;99.90
15906;DHT22;8051;50.820;4.884;2022-08-03T12:13:25;31.60;99.90
15906;DHT22;8051;50.820;4.884;2022-08-03T12:15:55;31.60;99.90
15906;DHT22;8051;50.820;4.884;2022-08-03T12:18:23;31.60;99.90
15906;DHT22;8051;50.820;4.884;2022-08-03T12:20:51;31.50;99.90
15906;DHT22;8051;50.820;4.884;2022-08-03T12:23:19;31.70;99.90
15906;DHT22;8051;50.820;4.884;2022-08-03T12:25:46;31.90;99.90
15906;DHT22;8051;50.820;4.884;2022-08-03T12:28:17;32.00;99.90
15906;DHT22;8051;50.820;4.884;2022-08-03T12:30:49;32.10;99.90
15906;DHT22;8051;50.820;4.884;2022-08-03T12:33:22;32.30;99.90
15906;DHT22;8051;50.820;4.884;2022-08-03T12:36:01;32.10;99.90
15906;DHT22;8051;50.820;4.884;2022-08-03T12:38:30;32.20;99.90
15906;DHT22;8051;50.820;4.884;2022-08-03T12:40:59;32.10;99.90
15906;DHT22;8051;50.820;4.884;2022-08-03T12:43:26;32.20;99.90
15906;DHT22;8051;50.820;4.884;2022-08-03T12:46:12;32.10;99.90
15906;DHT22;8051;50.820;4.884;2022-08-03T12:49:08;32.10;99.90
15906;DHT22;8051;50.820;4.884;2022-08-03T12:51:36;32.20;99.90
15906;DHT22;8051;50.820;4.884;2022-08-03T12:54:04;32.20;99.90
15906;DHT22;8051;50.820;4.884;2022-08-03T12:56:31;32.10;99.90
15906;DHT22;8051;50.820;4.884;2022-08-03T12:58:58;32.20;99.90
15906;DHT22;8051;50.820;4.884;2022-08-03T13:01:25;32.40;99.90
15906;DHT22;8051;50.820;4.884;2022-08-03T13:03:54;32.60;99.90
15906;DHT22;8051;50.820;4.884;2022-08-03T13:06:23;32.90;99.90
15906;DHT22;8051;50.820;4.884;2022-08-03T13:09:02;33.20;99.90
15906;DHT22;8051;50.820;4.884;2022-08-03T13:11:29;33.40;99.90
15906;DHT22;8051;50.820;4.884;2022-08-03T13:13:56;33.50;99.90
15906;DHT22;8051;50.820;4.884;2022-08-03T13:16:23;33.60;99.90
15906;DHT22;8051;50.820;4.884;2022-08-03T13:18:50;33.60;99.90
15906;DHT22;8051;50.820;4.884;2022-08-03T13:21:19;33.30;99.90
15906;DHT22;8051;50.820;4.884;2022-08-03T13:23:48;33.00;99.90
15906;DHT22;8051;50.820;4.884;2022-08-03T13:26:14;33.30;99.90
15906;DHT22;8051;50.820;4.884;2022-08-03T13:28:41;33.60;99.90
15906;DHT22;8051;50.820;4.884;2022-08-03T13:31:08;33.80;99.90
15906;DHT22;8051;50.820;4.884;2022-08-03T13:33:35;33.70;99.90
15906;DHT22;8051;50.820;4.884;2022-08-03T13:36:03;33.50;99.90
15906;DHT22;8051;50.820;4.884;2022-08-03T13:38:30;33.30;99.90
15906;DHT22;8051;50.820;4.884;2022-08-03T13:40:59;33.10;99.90
15906;DHT22;8051;50.820;4.884;2022-08-03T13:43:27;33.10;99.90
15906;DHT22;8051;50.820;4.884;2022-08-03T13:45:54;33.20;99.90
15906;DHT22;8051;50.820;4.884;2022-08-03T13:48:21;33.20;99.90
15906;DHT22;8051;50.820;4.884;2022-08-03T13:50:47;33.10;99.90
15906;DHT22;8051;50.820;4.884;2022-08-03T13:53:14;33.00;99.90
15906;DHT22;8051;50.820;4.884;2022-08-03T13:55:41;33.20;99.90
15906;DHT22;8051;50.820;4.884;2022-08-03T13:58:09;33.30;99.90
15906;DHT22;8051;50.820;4.884;2022-08-03T14:00:37;33.40;99.90
15906;DHT22;8051;50.820;4.884;2022-08-03T14:03:05;33.40;99.90
15906;DHT22;8051;50.820;4.884;2022-08-03T14:05:33;33.40;99.90
15906;DHT22;8051;50.820;4.884;2022-08-03T14:08:00;33.60;99.90
15906;DHT22;8051;50.820;4.884;2022-08-03T14:10:27;33.70;99.90
15906;DHT22;8051;50.820;4.884;2022-08-03T14:12:54;33.70;99.90
15906;DHT22;8051;50.820;4.884;2022-08-03T14:15:26;33.80;99.90
15906;DHT22;8051;50.820;4.884;2022-08-03T14:17:53;33.50;99.90
15906;DHT22;8051;50.820;4.884;2022-08-03T14:20:21;33.40;99.90
15906;DHT22;8051;50.820;4.884;2022-08-03T14:22:48;33.40;99.90
15906;DHT22;8051;50.820;4.884;2022-08-03T14:25:15;33.30;99.90
15906;DHT22;8051;50.820;4.884;2022-08-03T14:27:41;33.30;99.90
15906;DHT22;8051;50.820;4.884;2022-08-03T14:30:09;33.30;99.90
15906;DHT22;8051;50.820;4.884;2022-08-03T14:32:38;33.30;99.90
15906;DHT22;8051;50.820;4.884;2022-08-03T14:35:05;33.30;99.90
15906;DHT22;8051;50.820;4.884;2022-08-03T14:37:32;33.20;99.90
15906;DHT22;8051;50.820;4.884;2022-08-03T14:39:59;33.30;99.90
15906;DHT22;8051;50.820;4.884;2022-08-03T14:42:26;33.60;99.90
15906;DHT22;8051;50.820;4.884;2022-08-03T14:44:53;33.60;99.90
15906;DHT22;8051;50.820;4.884;2022-08-03T14:47:20;33.80;99.90
15906;DHT22;8051;50.820;4.884;2022-08-03T14:49:48;34.00;99.90
15906;DHT22;8051;50.820;4.884;2022-08-03T14:52:15;34.10;99.90
15906;DHT22;8051;50.820;4.884;2022-08-03T14:54:42;34.30;99.90
15906;DHT22;8051;50.820;4.884;2022-08-03T14:57:08;34.10;99.90
15906;DHT22;8051;50.820;4.884;2022-08-03T14:59:35;33.90;99.90
15906;DHT22;8051;50.820;4.884;2022-08-03T15:02:02;33.70;99.90
15906;DHT22;8051;50.820;4.884;2022-08-03T15:04:29;33.70;99.90
15906;DHT22;8051;50.820;4.884;2022-08-03T15:06:57;33.90;99.90
15906;DHT22;8051;50.820;4.884;2022-08-03T15:09:24;34.10;99.90
15906;DHT22;8051;50.820;4.884;2022-08-03T15:11:51;34.10;99.90
15906;DHT22;8051;50.820;4.884;2022-08-03T15:14:18;33.90;99.90
15906;DHT22;8051;50.820;4.884;2022-08-03T15:16:45;33.80;99.90
15906;DHT22;8051;50.820;4.884;2022-08-03T15:19:12;34.00;99.90
15906;DHT22;8051;50.820;4.884;2022-08-03T15:21:38;34.00;99.90
15906;DHT22;8051;50.820;4.884;2022-08-03T15:24:07;34.00;99.90
15906;DHT22;8051;50.820;4.884;2022-08-03T15:26:34;34.10;99.90
15906;DHT22;8051;50.820;4.884;2022-08-03T15:29:01;34.10;99.90
15906;DHT22;8051;50.820;4.884;2022-08-03T15:31:28;34.10;99.90
15906;DHT22;8051;50.820;4.884;2022-08-03T15:33:55;34.20;99.90
15906;DHT22;8051;50.820;4.884;2022-08-03T15:36:21;34.30;99.90
15906;DHT22;8051;50.820;4.884;2022-08-03T15:38:48;34.30;99.90
15906;DHT22;8051;50.820;4.884;2022-08-03T15:41:17;34.30;99.90
15906;DHT22;8051;50.820;4.884;2022-08-03T15:43:44;34.40;99.90
15906;DHT22;8051;50.820;4.884;2022-08-03T15:46:12;34.20;99.90
15906;DHT22;8051;50.820;4.884;2022-08-03T15:48:39;34.00;99.90
15906;DHT22;8051;50.820;4.884;2022-08-03T15:51:07;34.00;99.90
15906;DHT22;8051;50.820;4.884;2022-08-03T15:53:34;34.10;99.90
15906;DHT22;8051;50.820;4.884;2022-08-03T15:56:01;34.40;99.90
15906;DHT22;8051;50.820;4.884;2022-08-03T15:58:30;34.50;99.90
15906;DHT22;8051;50.820;4.884;2022-08-03T16:00:57;34.90;99.90